Time;durP1;ratioP1;P1;durP2;ratioP2;P2;SDS_P1;SDS_P2;PMS_P1;PMS_P2;Temp;Humidity;BMP_temperature;BMP_pressure;BME280_temperature;BME280_humidity;BME280_pressure;Samples;Min_cycle;Max_cycle;Signal;HPM_P1;HPM_P2
2022/12/14 00:02:14;;;;;;;27.00;11.70;;;;;;;-7.93;100.00;100311.88;4952026;29;20295;-83
2022/12/14 00:04:41;;;;;;;27.20;12.13;;;;;;;-7.95;100.00;100316.06;4957869;29;20311;-82
2022/12/14 00:07:09;;;;;;;21.53;11.03;;;;;;;-7.97;100.00;100297.19;4922728;29;20334;-82
2022/12/14 00:09:38;;;;;;;24.93;11.70;;;;;;;-7.94;100.00;100297.31;4940925;29;20331;-82
2022/12/14 00:12:07;;;;;;;23.20;11.20;;;;;;;-8.00;100.00;100299.59;4927768;29;20702;-81
2022/12/14 00:14:36;;;;;;;23.90;11.37;;;;;;;-8.04;100.00;100304.50;4928920;29;20302;-82
2022/12/14 00:17:03;;;;;;;29.03;11.60;;;;;;;-8.03;100.00;100301.13;4925357;29;20300;-83
2022/12/14 00:19:32;;;;;;;27.67;13.43;;;;;;;-8.07;100.00;100296.66;4948410;29;20299;-82
2022/12/14 00:21:59;;;;;;;20.53;10.53;;;;;;;-8.08;100.00;100303.47;4956520;29;20296;-83
2022/12/14 00:24:27;;;;;;;21.07;11.23;;;;;;;-8.10;100.00;100293.97;4951973;28;20307;-82
2022/12/14 00:26:55;;;;;;;24.50;11.50;;;;;;;-8.13;100.00;100297.25;4936066;29;20288;-81
2022/12/14 00:29:23;;;;;;;25.77;11.57;;;;;;;-8.15;100.00;100298.00;4923248;29;20788;-82
2022/12/14 00:31:50;;;;;;;26.63;12.07;;;;;;;-8.16;100.00;100307.34;4953563;29;20307;-82
2022/12/14 00:34:19;;;;;;;24.93;11.77;;;;;;;-8.20;100.00;100302.88;4957445;28;20310;-82
2022/12/14 00:36:46;;;;;;;28.30;12.27;;;;;;;-8.24;100.00;100301.88;4924061;29;20308;-82
2022/12/14 00:39:14;;;;;;;22.43;11.50;;;;;;;-8.22;100.00;100307.06;4939788;29;20299;-83
2022/12/14 00:41:42;;;;;;;23.37;11.53;;;;;;;-8.23;100.00;100302.75;4948376;29;20283;-82
2022/12/14 00:44:08;;;;;;;24.00;12.17;;;;;;;-8.25;100.00;100310.34;4944342;29;20323;-82
2022/12/14 00:46:37;;;;;;;24.23;11.63;;;;;;;-8.28;100.00;100312.75;4942095;29;20411;-82
2022/12/14 00:49:04;;;;;;;23.40;11.37;;;;;;;-8.32;100.00;100305.75;4948860;29;20299;-82
2022/12/14 00:51:32;;;;;;;26.23;12.10;;;;;;;-8.31;100.00;100307.50;4922705;29;20302;-81
2022/12/14 00:53:59;;;;;;;25.97;11.17;;;;;;;-8.31;100.00;100307.50;4936857;29;20299;-82
2022/12/14 00:56:26;;;;;;;22.67;12.37;;;;;;;-8.23;100.00;100306.19;4938354;29;20789;-82
2022/12/14 00:58:53;;;;;;;21.67;11.17;;;;;;;-8.26;100.00;100311.16;4926659;29;20371;-82
2022/12/14 01:01:20;;;;;;;24.47;12.10;;;;;;;-8.33;100.00;100308.22;4938171;29;20291;-82
2022/12/14 01:03:47;;;;;;;25.60;11.07;;;;;;;-8.42;100.00;100305.22;4955798;29;20314;-82
2022/12/14 01:06:18;;;;;;;23.60;11.60;;;;;;;-8.42;100.00;100305.22;4941534;29;20303;-81
2022/12/14 01:08:46;;;;;;;21.83;10.57;;;;;;;-8.44;100.00;100296.59;4923824;29;20765;-82
2022/12/14 01:11:13;;;;;;;26.23;12.03;;;;;;;-8.39;100.00;100300.28;4923880;29;20307;-82
2022/12/14 01:13:41;;;;;;;27.87;11.30;;;;;;;-8.39;100.00;100297.72;4924675;29;20307;-83
2022/12/14 01:16:13;;;;;;;26.63;12.07;;;;;;;-8.38;100.00;100295.22;4942496;29;20299;-82
2022/12/14 01:18:41;;;;;;;26.57;11.20;;;;;;;-8.38;100.00;100284.97;4952649;29;20295;-82
2022/12/14 01:21:14;;;;;;;24.53;11.63;;;;;;;-8.46;100.00;100290.53;4929307;29;20299;-83
2022/12/14 01:23:41;;;;;;;20.70;10.53;;;;;;;-8.33;100.00;100295.41;4943469;29;20335;-83
2022/12/14 01:26:11;;;;;;;24.40;11.23;;;;;;;-8.29;100.00;100284.50;4942186;29;21101;-82
2022/12/14 01:28:38;;;;;;;19.23;10.47;;;;;;;-8.38;100.00;100291.78;4937872;29;20359;-82
2022/12/14 01:31:10;;;;;;;22.67;10.33;;;;;;;-8.44;100.00;100286.34;4940516;29;20319;-82
2022/12/14 01:33:37;;;;;;;21.20;10.80;;;;;;;-8.50;100.00;100284.34;4943954;29;20295;-82
2022/12/14 01:36:09;;;;;;;26.33;11.10;;;;;;;-8.51;100.00;100275.81;4943130;29;20307;-83
2022/12/14 01:38:36;;;;;;;27.70;12.53;;;;;;;-8.49;100.00;100275.91;4929363;29;20292;-83
2022/12/14 01:41:04;;;;;;;25.57;12.03;;;;;;;-8.46;100.00;100272.59;4943866;29;20311;-82
2022/12/14 01:43:45;;;;;;;22.07;11.90;;;;;;;-8.47;100.00;100264.03;4929677;29;20350;-83
2022/12/14 01:46:19;;;;;;;24.13;10.97;;;;;;;-8.42;100.00;100266.81;4927449;29;20879;-83
2022/12/14 01:48:47;;;;;;;22.87;10.43;;;;;;;-8.50;100.00;100261.31;4941993;29;20390;-82
2022/12/14 01:51:14;;;;;;;25.43;11.13;;;;;;;-8.43;100.00;100262.50;4958512;28;20811;-81
2022/12/14 01:53:41;;;;;;;26.87;11.93;;;;;;;-8.49;100.00;100263.09;4959146;29;20299;-81
2022/12/14 01:56:11;;;;;;;22.73;11.73;;;;;;;-8.54;100.00;100259.41;4942210;29;20299;-83
2022/12/14 01:58:40;;;;;;;26.03;11.63;;;;;;;-8.51;100.00;100260.44;4942100;29;20299;-82
2022/12/14 02:01:11;;;;;;;27.73;11.47;;;;;;;-8.58;100.00;100250.69;5004581;23;20303;-80
2022/12/14 02:03:54;;;;;;;24.37;11.77;;;;;;;-8.58;100.00;100248.13;4919998;29;20304;-79
2022/12/14 02:06:43;;;;;;;23.53;11.20;;;;;;;-8.60;100.00;100252.31;4895951;29;20288;-84
2022/12/14 02:09:30;;;;;;;20.47;10.20;;;;;;;-8.63;100.00;100247.03;4898120;29;20307;-81
2022/12/14 02:12:18;;;;;;;22.60;10.47;;;;;;;-8.66;100.00;100241.78;4895464;29;20308;-81
2022/12/14 02:14:57;;;;;;;25.60;10.40;;;;;;;-8.67;100.00;100245.13;4912816;29;20367;-82
2022/12/14 02:17:37;;;;;;;23.93;11.13;;;;;;;-8.68;100.00;100243.38;4935479;29;20307;-81
2022/12/14 02:20:06;;;;;;;23.57;10.77;;;;;;;-8.64;100.00;100242.72;4923761;29;20292;-76
2022/12/14 02:23:29;;;;;;;21.60;10.03;;;;;;;-8.70;100.00;100241.53;4913060;29;20300;-81
2022/12/14 02:26:21;;;;;;;19.53;9.63;;;;;;;-8.70;100.00;100233.88;4933849;29;20298;-82
2022/12/14 02:29:14;;;;;;;20.13;10.37;;;;;;;-8.80;100.00;100235.09;4917260;28;20322;-81
2022/12/14 02:32:12;;;;;;;20.07;10.37;;;;;;;-8.63;100.00;100230.81;4913185;29;20718;-81
2022/12/14 02:35:11;;;;;;;24.30;11.03;;;;;;;-8.69;100.00;100221.13;4901553;29;20304;-80
2022/12/14 02:38:13;;;;;;;19.07;10.43;;;;;;;-8.65;100.00;100225.63;4921667;29;20386;-79
2022/12/14 02:41:28;;;;;;;22.53;10.20;;;;;;;-8.61;100.00;100227.50;4926707;29;20304;-80
2022/12/14 02:44:31;;;;;;;22.27;10.67;;;;;;;-8.74;100.00;100222.59;4897982;29;21071;-80
2022/12/14 02:47:30;;;;;;;20.80;10.07;;;;;;;-8.74;100.00;100221.69;4896199;29;20304;-79
2022/12/14 02:50:06;;;;;;;;;;;;;;;-8.78;100.00;100223.25;4915649;29;20323;-81
2022/12/14 02:53:13;;;;;;;;;;;;;;;;;;;;;
2022/12/14 02:56:15;;;;;;;24.13;10.03;;;;;;;-8.83;100.00;100217.00;4920789;29;20395;-81
2022/12/14 02:58:49;;;;;;;21.23;10.30;;;;;;;-8.89;100.00;100224.41;4919287;29;20295;-77
2022/12/14 03:01:22;;;;;;;24.37;10.77;;;;;;;-8.81;100.00;100223.09;4900266;29;20334;-76
2022/12/14 03:03:50;;;;;;;22.30;10.90;;;;;;;-8.86;100.00;100224.53;4915698;29;20788;-79
2022/12/14 03:06:48;;;;;;;23.77;10.60;;;;;;;-8.85;100.00;100218.63;4928548;29;20367;-80
2022/12/14 03:09:22;;;;;;;21.97;10.37;;;;;;;-8.77;100.00;100221.56;4899950;29;20288;-81
2022/12/14 03:12:15;;;;;;;19.63;11.13;;;;;;;-8.85;100.00;100222.06;4905215;29;20825;-84
2022/12/14 03:14:56;;;;;;;24.63;10.80;;;;;;;-8.87;100.00;100220.22;4906446;29;20847;-84
2022/12/14 03:17:28;;;;;;;22.87;10.17;;;;;;;-8.89;100.00;100225.28;4930604;29;20299;-84
2022/12/14 03:20:25;;;;;;;18.47;9.50;;;;;;;-8.86;100.00;100227.09;4911620;29;20296;-84
2022/12/14 03:23:11;;;;;;;21.47;10.80;;;;;;;-8.87;100.00;100222.78;4904421;29;20296;-79
2022/12/14 03:25:45;;;;;;;20.63;9.83;;;;;;;-8.92;100.00;100224.22;4906173;29;20932;-78
2022/12/14 03:28:17;;;;;;;19.90;10.53;;;;;;;-8.88;100.00;100219.34;4921823;29;20387;-81
2022/12/14 03:30:50;;;;;;;23.37;10.60;;;;;;;-8.98;100.00;100216.28;4930063;29;20296;-81
2022/12/14 03:33:27;;;;;;;18.10;8.73;;;;;;;-8.95;100.00;100218.97;4916477;29;20332;-78
2022/12/14 03:35:59;;;;;;;23.97;10.33;;;;;;;-8.93;100.00;100215.66;4901431;29;20346;-81
2022/12/14 03:38:36;;;;;;;21.77;9.67;;;;;;;-8.95;100.00;100216.41;4918197;29;20304;-82
2022/12/14 03:41:24;;;;;;;20.37;9.47;;;;;;;-8.97;100.00;100205.22;4923507;29;20809;-81
2022/12/14 03:44:03;;;;;;;22.30;9.47;;;;;;;-9.02;100.00;100215.22;4929652;28;20813;-80
2022/12/14 03:46:37;;;;;;;20.47;9.20;;;;;;;-9.02;100.00;100199.88;4917750;29;20823;-79
2022/12/14 03:49:19;;;;;;;13.80;7.00;;;;;;;-9.02;100.00;100198.97;4942614;28;20382;-80
2022/12/14 03:51:52;;;;;;;17.87;8.97;;;;;;;-9.01;100.00;100195.63;4904973;29;20049;-81
2022/12/14 03:54:27;;;;;;;17.00;9.63;;;;;;;-8.95;100.00;100201.94;4928948;29;20311;-80
2022/12/14 03:56:58;;;;;;;18.87;10.10;;;;;;;-8.94;100.00;100197.69;4922095;29;20351;-81
2022/12/14 03:59:27;;;;;;;23.83;9.90;;;;;;;-9.01;100.00;100196.50;4924792;29;20741;-79
2022/12/14 04:01:56;;;;;;;19.63;9.57;;;;;;;-9.06;100.00;100192.84;4925125;29;20763;-81
2022/12/14 04:04:33;;;;;;;21.93;10.47;;;;;;;-8.96;100.00;100189.06;4908238;29;20320;-80
2022/12/14 04:07:20;;;;;;;18.23;9.43;;;;;;;-8.99;100.00;100178.69;4897780;29;20368;-81
2022/12/14 04:09:54;;;;;;;19.83;9.40;;;;;;;-9.01;100.00;100176.03;4925021;29;20295;-79
2022/12/14 04:21:15;;;;;;;24.90;10.97;;;;;;;-8.76;100.00;100157.63;4925912;29;20303;-82
2022/12/14 04:26:35;;;;;;;23.57;10.77;;;;;;;-8.68;100.00;100158.88;4915821;29;20794;-80
2022/12/14 04:31:58;;;;;;;;;;;;;;;-8.71;100.00;100152.75;4924849;29;20329;-81
2022/12/14 04:34:26;;;;;;;20.43;9.67;;;;;;;-8.69;100.00;100148.56;4938979;28;20440;-81
2022/12/14 04:37:04;;;;;;;20.33;10.17;;;;;;;-8.63;100.00;100147.19;4902575;29;20307;-81
2022/12/14 04:39:53;;;;;;;22.87;11.27;;;;;;;-8.47;100.00;100135.97;4908382;29;20311;-80
2022/12/14 04:42:24;;;;;;;19.63;10.73;;;;;;;-8.44;100.00;100140.34;4924535;29;20322;-81
2022/12/14 04:44:53;;;;;;;20.27;9.87;;;;;;;-8.53;100.00;100131.44;4942413;29;20329;-80
2022/12/14 04:47:22;;;;;;;26.13;11.03;;;;;;;-8.39;100.00;100128.66;4924885;29;21160;-81
2022/12/14 04:50:00;;;;;;;23.37;11.23;;;;;;;-8.33;100.00;100118.63;4914882;29;20314;-81
2022/12/14 04:53:02;;;;;;;27.70;11.70;;;;;;;-8.42;100.00;100120.81;4914378;29;20300;-80
2022/12/14 04:55:39;;;;;;;23.47;11.73;;;;;;;-8.40;100.00;100116.66;4911152;29;20309;-80
2022/12/14 04:58:18;;;;;;;21.47;11.00;;;;;;;-8.40;100.00;100117.53;4896121;29;20301;-82
2022/12/14 05:01:02;;;;;;;23.03;11.80;;;;;;;-8.29;100.00;100115.41;4896281;29;20296;-82
2022/12/14 05:03:32;;;;;;;22.27;10.80;;;;;;;-8.32;100.00;100118.72;4914520;29;20300;-82
2022/12/14 05:06:32;;;;;;;22.57;11.10;;;;;;;-8.43;100.00;100112.25;4895390;29;20048;-81
2022/12/14 05:09:39;;;;;;;22.23;11.00;;;;;;;-8.39;100.00;100108.16;4914332;29;20301;-82
2022/12/14 05:12:39;;;;;;;23.10;11.10;;;;;;;-8.51;100.00;100108.44;4911037;29;20307;-82
2022/12/14 05:15:17;;;;;;;24.33;10.57;;;;;;;-8.37;100.00;100107.41;4904870;29;20325;-82
2022/12/14 05:17:57;;;;;;;22.77;10.67;;;;;;;-8.39;100.00;100093.66;4899085;29;20295;-83
2022/12/14 05:20:40;;;;;;;20.63;12.57;;;;;;;-8.37;100.00;100092.03;4914865;29;20308;-82
2022/12/14 05:23:11;;;;;;;21.47;10.93;;;;;;;-8.54;100.00;100092.94;4905658;29;21868;-81
2022/12/14 05:25:44;;;;;;;18.53;10.60;;;;;;;-8.45;100.00;100084.81;4898583;29;20319;-80
2022/12/14 05:28:15;;;;;;;25.35;11.65;;;;;;;-8.42;100.00;100082.38;4909958;29;20957;-80
2022/12/14 05:30:44;;;;;;;22.93;11.10;;;;;;;-8.48;100.00;100087.25;4923198;29;20118;-82
2022/12/14 05:33:19;;;;;;;22.30;11.27;;;;;;;-8.54;100.00;100080.16;4911693;29;20327;-81
2022/12/14 05:35:45;;;;;;;23.60;10.60;;;;;;;-8.48;100.00;100074.44;4912750;29;20300;-80
2022/12/14 05:38:12;;;;;;;23.33;11.63;;;;;;;-8.37;100.00;100076.66;4917345;29;20296;-80
2022/12/14 05:40:39;;;;;;;25.23;12.37;;;;;;;-8.38;100.00;100086.84;4906643;29;20351;-81
2022/12/14 05:43:06;;;;;;;24.27;11.90;;;;;;;-8.36;100.00;100082.66;4907346;29;20311;-83
2022/12/14 05:45:33;;;;;;;25.50;11.60;;;;;;;-8.39;100.00;100085.97;4906760;29;20287;-81
2022/12/14 05:48:00;;;;;;;23.37;11.57;;;;;;;-8.47;100.00;100074.50;4914092;29;20280;-79
2022/12/14 05:50:26;;;;;;;23.73;10.77;;;;;;;-8.46;100.00;100076.25;4900495;29;20311;-79
2022/12/14 05:52:54;;;;;;;23.70;10.80;;;;;;;-8.36;100.00;100075.84;4918397;29;20299;-80
2022/12/14 05:55:21;;;;;;;24.20;12.17;;;;;;;-8.33;100.00;100068.25;4927459;29;20675;-80
2022/12/14 05:57:48;;;;;;;22.37;11.47;;;;;;;-8.44;100.00;100073.75;4913823;29;20323;-79
2022/12/14 06:00:14;;;;;;;17.00;9.90;;;;;;;-8.51;100.00;100070.91;4932802;29;20308;-79
2022/12/14 06:02:41;;;;;;;24.43;12.13;;;;;;;-8.45;100.00;100061.75;4936304;29;20306;-80
2022/12/14 06:05:08;;;;;;;22.33;11.70;;;;;;;-8.52;100.00;100063.16;4913483;29;20299;-80
2022/12/14 06:07:34;;;;;;;25.63;12.73;;;;;;;-8.58;100.00;100066.31;4920834;29;20415;-80
2022/12/14 06:10:01;;;;;;;22.93;11.40;;;;;;;-8.61;100.00;100060.19;4926901;29;20296;-81
2022/12/14 06:12:28;;;;;;;19.83;11.07;;;;;;;-8.69;100.00;100064.06;4905753;29;20299;-81
2022/12/14 06:14:54;;;;;;;17.80;9.90;;;;;;;-8.66;100.00;100062.53;4914530;29;20865;-79
2022/12/14 06:17:21;;;;;;;22.03;11.20;;;;;;;-8.73;100.00;100060.50;4914582;29;20665;-79
2022/12/14 06:19:48;;;;;;;19.77;11.67;;;;;;;-8.71;100.00;100063.13;4915584;29;20296;-80
2022/12/14 06:22:16;;;;;;;25.17;11.37;;;;;;;-8.67;100.00;100068.44;4923152;29;20299;-80
2022/12/14 06:24:43;;;;;;;21.37;10.70;;;;;;;-8.52;100.00;100055.47;4946674;28;20287;-81
2022/12/14 06:27:09;;;;;;;22.97;11.63;;;;;;;-8.53;100.00;100054.59;4911642;29;20812;-81
2022/12/14 06:29:36;;;;;;;21.93;10.27;;;;;;;-8.57;100.00;100055.28;4905238;29;20287;-81
2022/12/14 06:32:03;;;;;;;24.67;11.87;;;;;;;-8.66;100.00;100059.97;4927145;29;20306;-79
2022/12/14 06:34:29;;;;;;;23.60;11.97;;;;;;;-8.62;100.00;100055.88;4903383;29;20712;-80
2022/12/14 06:37:05;;;;;;;22.15;11.23;;;;;;;-8.85;100.00;100044.56;4898133;29;20904;-80
2022/12/14 06:39:31;;;;;;;23.63;11.00;;;;;;;-8.81;100.00;100047.34;4913709;29;20143;-80
2022/12/14 06:41:58;;;;;;;21.67;9.77;;;;;;;-8.90;100.00;100056.28;4929377;29;20296;-80
2022/12/14 06:44:24;;;;;;;22.03;11.00;;;;;;;-8.92;100.00;100056.19;4928721;29;20303;-81
2022/12/14 06:46:51;;;;;;;19.03;10.93;;;;;;;-9.08;100.00;100051.13;4913136;29;20292;-80
2022/12/14 06:49:18;;;;;;;18.93;10.50;;;;;;;-9.14;100.00;100046.63;4915011;29;20780;-80
2022/12/14 06:51:45;;;;;;;19.40;10.87;;;;;;;-9.08;100.00;100051.13;4891382;29;20845;-81
2022/12/14 06:54:12;;;;;;;21.73;10.37;;;;;;;-9.17;100.00;100045.59;4909883;29;20289;-81
2022/12/14 06:56:39;;;;;;;26.00;11.20;;;;;;;-9.01;100.00;100042.94;4920930;29;20360;-80
2022/12/14 06:59:07;;;;;;;18.97;10.47;;;;;;;-9.08;100.00;100038.34;4932305;29;20800;-79
2022/12/14 07:01:35;;;;;;;19.63;10.33;;;;;;;-9.16;100.00;100032.91;4914036;29;20299;-80
2022/12/14 07:04:03;;;;;;;22.27;11.53;;;;;;;-9.11;100.00;100033.97;4916633;29;20291;-79
2022/12/14 07:06:35;;;;;;;23.23;10.83;;;;;;;-9.05;100.00;100042.75;4945045;28;20295;-80
2022/12/14 07:09:03;;;;;;;20.07;10.47;;;;;;;-9.11;100.00;100035.66;4909905;29;20288;-80
2022/12/14 07:11:30;;;;;;;22.97;11.33;;;;;;;-9.02;100.00;100043.75;4927040;29;20804;-80
2022/12/14 07:13:59;;;;;;;19.67;10.50;;;;;;;-9.03;100.00;100038.56;4908195;29;20301;-81
2022/12/14 07:16:28;;;;;;;19.10;10.43;;;;;;;-9.10;100.00;100039.97;4935046;29;20307;-80
2022/12/14 07:18:55;;;;;;;17.13;10.03;;;;;;;-9.10;100.00;100032.28;4900708;29;20308;-80
2022/12/14 07:21:22;;;;;;;20.67;10.60;;;;;;;-9.18;100.00;100034.47;4928090;29;20299;-80
2022/12/14 07:23:50;;;;;;;21.57;10.47;;;;;;;-8.99;100.00;100038.81;4938431;29;20292;-81
2022/12/14 07:26:19;;;;;;;18.50;10.30;;;;;;;-9.14;100.00;100041.50;4916519;29;20295;-80
2022/12/14 07:28:46;;;;;;;19.73;10.53;;;;;;;-8.97;100.00;100034.63;4916439;29;20654;-81
2022/12/14 07:31:18;;;;;;;19.77;10.47;;;;;;;-8.94;100.00;100033.88;4915675;29;20291;-80
2022/12/14 07:33:46;;;;;;;19.13;10.67;;;;;;;-9.03;100.00;100015.56;4920015;29;20808;-80
2022/12/14 07:36:15;;;;;;;21.53;10.90;;;;;;;-9.00;100.00;100018.25;4940231;29;20685;-79
2022/12/14 07:38:43;;;;;;;24.87;11.50;;;;;;;-8.96;100.00;100015.91;4904976;29;20382;-81
2022/12/14 07:41:15;;;;;;;21.67;11.53;;;;;;;-8.96;100.00;100031.25;4943280;29;20288;-80
2022/12/14 07:43:47;;;;;;;26.03;11.70;;;;;;;-9.01;100.00;100021.59;4936777;29;20318;-81
2022/12/14 07:46:18;;;;;;;24.13;10.37;;;;;;;-8.94;100.00;100023.66;4925640;29;20300;-79
2022/12/14 07:48:46;;;;;;;23.83;10.60;;;;;;;-8.96;100.00;100021.03;4904943;29;20302;-81
2022/12/14 07:51:15;;;;;;;23.97;10.07;;;;;;;-8.99;100.00;100015.78;4923610;29;20668;-80
2022/12/14 07:53:42;;;;;;;19.17;10.47;;;;;;;-9.02;100.00;100017.31;4918022;29;20757;-81
2022/12/14 07:56:15;;;;;;;22.90;10.33;;;;;;;-8.91;100.00;100017.00;4916147;29;20689;-81
2022/12/14 07:58:41;;;;;;;20.80;10.03;;;;;;;-8.93;100.00;100025.41;4931872;29;20296;-79
2022/12/14 08:01:21;;;;;;;23.63;10.87;;;;;;;-8.92;100.00;100022.03;4932177;29;20634;-81
2022/12/14 08:03:52;;;;;;;17.90;10.27;;;;;;;-8.66;100.00;100015.53;4896725;29;20305;-79
2022/12/14 08:06:21;;;;;;;23.97;12.00;;;;;;;-8.75;100.00;100018.56;4929298;29;20326;-80
2022/12/14 08:08:47;;;;;;;27.00;11.27;;;;;;;-8.73;100.00;100014.41;4908135;29;20296;-80
2022/12/14 08:11:15;;;;;;;27.37;11.70;;;;;;;-8.67;100.00;100016.34;4941772;29;20306;-81
2022/12/14 08:13:42;;;;;;;21.00;10.60;;;;;;;-8.82;100.00;100017.44;4926828;29;20292;-82
2022/12/14 08:16:11;;;;;;;22.67;11.93;;;;;;;-8.84;100.00;100013.03;4915084;29;20284;-80
2022/12/14 08:18:38;;;;;;;23.37;12.07;;;;;;;-8.75;100.00;100010.88;4900098;29;20300;-81
2022/12/14 08:21:06;;;;;;;22.97;11.37;;;;;;;-8.79;100.00;100009.00;4915771;29;20300;-81
2022/12/14 08:23:33;;;;;;;24.10;11.97;;;;;;;-8.67;100.00;100013.78;4915708;29;20307;-81
2022/12/14 08:26:01;;;;;;;29.43;13.27;;;;;;;-8.53;100.00;100005.06;4903903;29;20299;-80
2022/12/14 08:28:28;;;;;;;20.80;12.60;;;;;;;-8.45;100.00;99998.59;4924462;29;20292;-78
2022/12/14 08:30:56;;;;;;;20.97;11.77;;;;;;;-8.42;100.00;99998.72;4928274;29;20792;-79
2022/12/14 08:33:22;;;;;;;22.60;12.33;;;;;;;-8.41;100.00;99999.59;4957072;29;20288;-78
2022/12/14 08:35:49;;;;;;;25.73;11.23;;;;;;;-8.33;100.00;99993.97;4951748;28;20280;-78
2022/12/14 08:38:16;;;;;;;21.93;12.03;;;;;;;-8.39;100.00;100003.13;4984564;23;20357;-82
2022/12/14 08:40:43;;;;;;;20.57;10.30;;;;;;;-8.43;100.00;99991.84;4963316;28;20553;-81
2022/12/14 08:43:09;;;;;;;25.17;11.70;;;;;;;-8.32;100.00;100000.00;4971537;28;20299;-81
2022/12/14 08:45:37;;;;;;;24.57;11.00;;;;;;;-8.28;100.00;100001.88;4961465;28;20294;-83
2022/12/14 08:48:04;;;;;;;20.73;11.57;;;;;;;-8.30;100.00;100001.81;4946567;28;20320;-81
2022/12/14 08:50:31;;;;;;;24.90;11.70;;;;;;;-8.09;100.00;99995.84;4948341;28;20306;-81
2022/12/14 08:52:58;;;;;;;25.37;14.27;;;;;;;-8.09;100.00;99993.28;4944884;28;20325;-81
2022/12/14 08:55:24;;;;;;;26.20;11.53;;;;;;;-8.10;100.00;99996.66;4939646;28;20290;-82
2022/12/14 08:57:58;;;;;;;24.97;11.13;;;;;;;-7.89;100.00;99989.03;4946512;28;20385;-81
2022/12/14 09:00:24;;;;;;;23.93;11.40;;;;;;;-7.91;100.00;99998.31;4963039;28;20361;-81
2022/12/14 09:02:51;;;;;;;24.80;11.87;;;;;;;-8.01;100.00;99987.66;4930729;28;20450;-82
2022/12/14 09:05:18;;;;;;;24.43;11.83;;;;;;;-7.87;100.00;99984.81;4962147;28;20294;-81
2022/12/14 09:07:44;;;;;;;25.83;11.30;;;;;;;-7.82;100.00;99984.22;4962616;28;20290;-81
2022/12/14 09:10:12;;;;;;;24.03;11.57;;;;;;;-7.67;100.00;99989.09;4993782;28;20746;-82
2022/12/14 09:12:38;;;;;;;21.70;11.23;;;;;;;-7.73;100.00;99986.28;4984049;28;20309;-81
2022/12/14 09:15:06;;;;;;;22.20;10.90;;;;;;;-7.72;100.00;99981.22;4933378;28;20293;-82
2022/12/14 09:17:33;;;;;;;21.77;12.13;;;;;;;-7.65;100.00;99982.31;4980091;28;20294;-83
2022/12/14 09:20:00;;;;;;;23.63;11.57;;;;;;;-7.56;100.00;99974.16;4964668;28;20286;-82
2022/12/14 09:22:26;;;;;;;24.43;12.20;;;;;;;-7.57;100.00;99969.81;4982526;28;20286;-83
2022/12/14 09:24:53;;;;;;;24.33;12.07;;;;;;;-7.45;100.00;99980.59;4981161;28;20321;-82
2022/12/14 09:27:21;;;;;;;25.37;12.23;;;;;;;-7.34;100.00;99970.75;4932338;28;20392;-83
2022/12/14 09:29:51;;;;;;;23.33;11.17;;;;;;;-7.25;100.00;99966.84;4966201;28;20386;-82
2022/12/14 09:32:17;;;;;;;22.93;11.10;;;;;;;-7.28;100.00;99965.84;4955168;28;20313;-82
2022/12/14 09:34:44;;;;;;;21.77;11.83;;;;;;;-7.29;100.00;99953.84;4976566;28;20844;-82
2022/12/14 09:37:11;;;;;;;22.57;11.87;;;;;;;-7.29;100.00;99964.13;4951161;28;20313;-83
2022/12/14 09:39:38;;;;;;;22.23;11.37;;;;;;;-7.09;100.00;99958.03;4982405;28;20302;-82
2022/12/14 09:42:40;;;;;;;22.47;12.13;;;;;;;-7.07;100.00;99961.53;4965602;28;20298;-83
2022/12/14 09:45:17;;;;;;;23.67;11.90;;;;;;;-7.03;100.00;99959.97;4923927;29;20429;-83
2022/12/14 09:47:59;;;;;;;24.47;11.70;;;;;;;-6.79;100.00;99958.34;4942511;28;20883;-83
2022/12/14 09:50:26;;;;;;;23.50;11.03;;;;;;;-6.85;100.00;99953.84;4969921;28;20336;-82
2022/12/14 09:53:00;;;;;;;24.97;12.67;;;;;;;-6.60;100.00;99939.34;4959900;28;20302;-82
2022/12/14 09:55:34;;;;;;;22.13;12.02;;;;;;;-6.74;100.00;99940.53;4976011;28;20290;-82
2022/12/14 09:58:12;;;;;;;23.43;11.93;;;;;;;-6.79;100.00;99945.50;4959526;28;20507;-83
2022/12/14 10:00:43;;;;;;;23.63;11.30;;;;;;;-6.73;100.00;99940.56;4932371;28;20294;-83
2022/12/14 10:03:22;;;;;;;22.23;11.10;;;;;;;-6.72;100.00;99944.91;4949740;28;20668;-83
2022/12/14 10:06:03;;;;;;;19.90;11.13;;;;;;;-6.57;100.00;99930.03;4928599;29;20290;-83
2022/12/14 10:08:35;;;;;;;22.60;12.13;;;;;;;-6.44;100.00;99933.94;4973060;28;20282;-83
2022/12/14 10:11:10;;;;;;;22.17;12.07;;;;;;;-6.27;100.00;99934.53;4948913;28;20295;-83
2022/12/14 10:13:51;;;;;;;26.63;12.33;;;;;;;-6.35;100.00;99929.13;4959629;28;20302;-82
2022/12/14 10:16:27;;;;;;;22.33;12.17;;;;;;;-6.21;100.00;99928.75;4951711;28;20046;-82
2022/12/14 10:19:17;;;;;;;22.80;12.37;;;;;;;-6.02;100.00;99924.25;4922192;28;20043;-81
2022/12/14 10:21:47;;;;;;;24.30;12.03;;;;;;;-6.01;100.00;99920.00;4923099;28;20301;-81
2022/12/14 10:24:18;;;;;;;24.70;11.43;;;;;;;-5.83;100.00;99918.00;4950845;28;20055;-83
2022/12/14 10:26:52;;;;;;;24.00;12.50;;;;;;;-5.67;100.00;99901.34;4951674;28;20043;-83
2022/12/14 10:29:31;;;;;;;25.58;12.82;;;;;;;-5.39;100.00;99903.09;4925076;28;20047;-83
2022/12/14 10:32:17;;;;;;;25.67;11.23;;;;;;;-5.40;100.00;99894.50;4973000;28;20046;-83
2022/12/14 10:34:43;;;;;;;21.40;11.63;;;;;;;-5.39;100.00;99897.94;4956674;28;21657;-83
2022/12/14 10:37:24;;;;;;;22.73;11.40;;;;;;;-5.23;100.00;99897.59;4955187;28;20074;-81
2022/12/14 10:40:03;;;;;;;22.97;11.97;;;;;;;-5.05;100.00;99891.25;4940860;28;20090;-83
2022/12/14 10:43:07;;;;;;;19.57;10.67;;;;;;;-4.82;100.00;99880.78;4987651;28;20062;-82
2022/12/14 10:45:50;;;;;;;20.10;10.85;;;;;;;-4.64;100.00;99880.41;4940700;28;20105;-83
2022/12/14 10:48:20;;;;;;;19.50;10.85;;;;;;;-4.43;100.00;99877.56;4968731;28;20046;-82
2022/12/14 10:51:04;;;;;;;24.80;11.83;;;;;;;-4.37;100.00;99870.00;4944746;28;20487;-83
2022/12/14 10:53:46;;;;;;;21.73;11.30;;;;;;;-4.15;100.00;99867.97;4958811;28;20047;-83
2022/12/14 10:56:20;;;;;;;23.47;11.23;;;;;;;-3.83;100.00;99864.47;4950662;28;20066;-83
2022/12/14 10:59:19;;;;;;;20.80;11.97;;;;;;;-3.56;100.00;99864.25;4936798;28;20058;-83
2022/12/14 11:02:14;;;;;;;21.37;11.13;;;;;;;-3.50;100.00;99861.81;4953307;28;20093;-82
2022/12/14 11:05:04;;;;;;;18.40;10.60;;;;;;;-3.37;100.00;99854.34;4944023;29;20051;-84
2022/12/14 11:07:31;;;;;;;21.30;10.60;;;;;;;-3.17;100.00;99851.38;4908191;29;20084;-82
2022/12/14 11:10:18;;;;;;;18.87;10.93;;;;;;;-2.91;100.00;99851.06;4965529;28;20039;-84
2022/12/14 11:13:06;;;;;;;17.50;10.97;;;;;;;-2.89;100.00;99845.06;4953339;28;20042;-84
2022/12/14 11:15:46;;;;;;;15.80;10.57;;;;;;;-2.72;100.00;99839.34;4945556;28;20543;-85
2022/12/14 11:18:15;;;;;;;18.13;9.77;;;;;;;-2.52;100.00;99829.38;4950919;28;20070;-83
2022/12/14 11:20:50;;;;;;;18.63;10.23;;;;;;;-2.32;100.00;99836.69;4944204;28;20043;-83
2022/12/14 11:23:19;;;;;;;17.40;10.82;;;;;;;-2.33;100.00;99827.19;4943320;28;20052;-82
2022/12/14 11:25:49;;;;;;;18.07;10.50;;;;;;;-2.28;100.00;99825.53;4960539;28;20405;-83
2022/12/14 11:28:38;;;;;;;19.30;10.73;;;;;;;-2.19;100.00;99829.13;4944857;28;20039;-82
2022/12/14 11:31:05;;;;;;;20.13;10.70;;;;;;;-2.10;97.83;99826.69;4941834;28;20039;-83
2022/12/14 11:33:37;;;;;;;19.20;10.57;;;;;;;-2.21;99.57;99818.75;4969116;28;20081;-84
2022/12/14 11:36:05;;;;;;;19.40;10.23;;;;;;;-2.11;100.00;99819.78;4957256;28;20062;-84
2022/12/14 11:38:32;;;;;;;20.33;11.13;;;;;;;-2.19;100.00;99817.06;4954341;28;20046;-82
2022/12/14 11:41:01;;;;;;;17.83;11.77;;;;;;;-2.18;99.28;99821.41;4958130;28;20047;-83
2022/12/14 11:43:39;;;;;;;19.63;10.40;;;;;;;-2.27;100.00;99811.78;4942445;28;20043;-83
2022/12/14 11:46:06;;;;;;;23.17;12.13;;;;;;;-2.21;100.00;99811.00;4936912;28;20619;-84
2022/12/14 11:48:37;;;;;;;18.47;11.33;;;;;;;-2.32;100.00;99804.78;4944102;28;20064;-82
2022/12/14 11:51:11;;;;;;;18.00;9.93;;;;;;;-2.39;100.00;99810.66;4951902;28;20042;-82